Time;durP1;ratioP1;P1;durP2;ratioP2;P2;SDS_P1;SDS_P2;PMS_P1;PMS_P2;Temp;Humidity;BMP_temperature;BMP_pressure;BME280_temperature;BME280_humidity;BME280_pressure;Samples;Min_cycle;Max_cycle;Signal;HPM_P1;HPM_P2
2022/04/08 00:02:25;;;;;;;;;;;6.90;99.90;;;;;;5106337;27;19947;-69
2022/04/08 00:04:50;;;;;;;;;;;6.90;99.90;;;;;;5126228;27;19916;-69
2022/04/08 00:07:16;;;;;;;;;;;6.90;99.90;;;;;;5135415;27;19915;-69
2022/04/08 00:09:41;;;;;;;;;;;6.90;99.90;;;;;;5135032;27;19915;-69
2022/04/08 00:12:07;;;;;;;;;;;6.90;99.90;;;;;;5135089;27;19981;-69
2022/04/08 00:14:33;;;;;;;;;;;6.80;99.90;;;;;;5135197;27;19927;-69
2022/04/08 00:16:58;;;;;;;;;;;6.80;99.90;;;;;;5133862;27;20338;-69
2022/04/08 00:19:24;;;;;;;;;;;6.80;99.90;;;;;;5134697;27;20044;-69
2022/04/08 00:21:49;;;;;;;;;;;6.70;99.90;;;;;;5134706;27;19915;-69
2022/04/08 00:24:17;;;;;;;;;;;6.70;99.90;;;;;;5134759;27;19916;-68
2022/04/08 00:26:44;;;;;;;;;;;6.80;99.90;;;;;;5134857;27;19970;-68
2022/04/08 00:29:10;;;;;;;;;;;6.70;99.90;;;;;;5133203;27;20015;-69
2022/04/08 00:31:35;;;;;;;;;;;6.80;99.90;;;;;;5134544;27;20405;-68
2022/04/08 00:34:00;;;;;;;;;;;6.80;99.90;;;;;;5134521;27;19915;-69
2022/04/08 00:36:26;;;;;;;;;;;6.80;99.90;;;;;;5134697;27;19946;-68
2022/04/08 00:38:51;;;;;;;;;;;6.80;99.90;;;;;;5133202;27;19966;-70
2022/04/08 00:41:17;;;;;;;;;;;6.80;99.90;;;;;;5134625;27;19920;-69
2022/04/08 00:43:42;;;;;;;;;;;6.80;99.90;;;;;;5134585;27;20410;-68
2022/04/08 00:46:09;;;;;;;;;;;6.80;99.90;;;;;;5134271;27;19994;-69
2022/04/08 00:48:36;;;;;;;;;;;6.80;99.90;;;;;;5133977;27;19927;-68
2022/04/08 00:51:03;;;;;;;;;;;6.70;99.90;;;;;;5134429;27;19971;-69
2022/04/08 00:53:29;;;;;;;;;;;6.80;99.90;;;;;;5134429;27;19971;-69
2022/04/08 00:55:55;;;;;;;;;;;6.80;99.90;;;;;;5134308;27;19915;-69
2022/04/08 00:58:21;;;;;;;;;;;6.70;99.90;;;;;;5132794;27;20018;-69
2022/04/08 01:00:46;;;;;;;;;;;6.70;99.90;;;;;;5133955;27;20386;-70
2022/04/08 01:03:12;;;;;;;;;;;6.60;99.90;;;;;;5134016;27;19961;-69
2022/04/08 01:05:38;;;;;;;;;;;6.50;99.90;;;;;;5134278;27;19919;-70
2022/04/08 01:08:03;;;;;;;;;;;6.40;99.90;;;;;;5134052;27;19968;-70
2022/04/08 01:10:29;;;;;;;;;;;6.40;99.90;;;;;;5134068;27;19915;-70
2022/04/08 01:12:55;;;;;;;;;;;6.40;99.90;;;;;;5133906;27;19923;-70
2022/04/08 01:15:21;;;;;;;;;;;6.40;99.90;;;;;;5133780;27;19921;-70
2022/04/08 01:17:47;;;;;;;;;;;6.20;99.90;;;;;;5133655;27;19923;-71
2022/04/08 01:20:13;;;;;;;;;;;6.20;99.90;;;;;;5133466;27;19919;-70
2022/04/08 01:22:39;;;;;;;;;;;6.10;99.90;;;;;;5133771;27;19915;-70
2022/04/08 01:25:05;;;;;;;;;;;6.10;99.90;;;;;;5133726;27;20264;-70
2022/04/08 01:27:31;;;;;;;;;;;6.10;99.90;;;;;;5133608;27;19922;-70
2022/04/08 01:29:57;;;;;;;;;;;6.10;99.90;;;;;;5133235;27;19919;-70
2022/04/08 01:32:22;;;;;;;;;;;6.00;99.90;;;;;;5133409;27;19966;-70
2022/04/08 01:34:52;;;;;;;;;;;6.00;99.90;;;;;;5133696;27;19950;-71
2022/04/08 01:37:18;;;;;;;;;;;5.90;99.90;;;;;;5133398;27;19968;-69
2022/04/08 01:39:44;;;;;;;;;;;5.80;99.90;;;;;;5133214;27;19961;-70
2022/04/08 01:42:09;;;;;;;;;;;5.80;99.90;;;;;;5133352;27;19916;-69
2022/04/08 01:44:35;;;;;;;;;;;5.70;99.90;;;;;;5133415;27;19915;-69
2022/04/08 01:47:00;;;;;;;;;;;5.70;99.90;;;;;;5131998;27;19919;-68
2022/04/08 01:49:26;;;;;;;;;;;5.70;99.90;;;;;;5133095;27;20002;-69
2022/04/08 01:51:51;;;;;;;;;;;5.50;99.90;;;;;;5133205;27;20391;-69
2022/04/08 01:54:17;;;;;;;;;;;5.60;99.90;;;;;;5133249;27;19919;-68
2022/04/08 01:56:42;;;;;;;;;;;5.60;99.90;;;;;;5133071;27;19919;-69
2022/04/08 01:59:08;;;;;;;;;;;5.50;99.90;;;;;;5132831;27;19919;-69
2022/04/08 02:01:33;;;;;;;;;;;5.60;99.90;;;;;;5132823;27;20378;-69
2022/04/08 02:03:59;;;;;;;;;;;5.60;99.90;;;;;;5132990;27;19924;-68
2022/04/08 02:06:25;;;;;;;;;;;5.70;99.90;;;;;;5133002;27;20327;-68
2022/04/08 02:08:50;;;;;;;;;;;5.70;99.90;;;;;;5131219;27;20006;-68
2022/04/08 02:11:16;;;;;;;;;;;5.80;99.90;;;;;;5132785;27;20161;-69
2022/04/08 02:13:41;;;;;;;;;;;5.70;99.90;;;;;;5131435;27;19919;-68
2022/04/08 02:16:07;;;;;;;;;;;5.70;99.90;;;;;;5132570;27;20006;-68
2022/04/08 02:18:32;;;;;;;;;;;5.70;99.90;;;;;;5132577;27;19995;-69
2022/04/08 02:20:58;;;;;;;;;;;5.70;99.90;;;;;;5132201;27;19915;-68
2022/04/08 02:23:24;;;;;;;;;;;5.70;99.90;;;;;;5132723;27;19916;-68
2022/04/08 02:25:49;;;;;;;;;;;5.60;99.90;;;;;;5132559;27;19960;-68
2022/04/08 02:28:15;;;;;;;;;;;5.60;99.90;;;;;;5132423;27;19915;-68
2022/04/08 02:30:40;;;;;;;;;;;5.50;99.90;;;;;;5132092;27;19968;-69
2022/04/08 02:33:06;;;;;;;;;;;5.50;99.90;;;;;;5132722;27;19916;-69
2022/04/08 02:35:31;;;;;;;;;;;5.40;99.90;;;;;;5132643;27;20343;-68
2022/04/08 02:37:57;;;;;;;;;;;5.50;99.90;;;;;;5132485;27;19942;-68
2022/04/08 02:40:22;;;;;;;;;;;5.30;99.90;;;;;;5132052;27;20417;-70
2022/04/08 02:42:48;;;;;;;;;;;5.30;99.90;;;;;;5132314;27;20014;-68
2022/04/08 02:45:13;;;;;;;;;;;5.40;99.90;;;;;;5130723;27;19964;-68
2022/04/08 02:47:43;;;;;;;;;;;5.30;99.90;;;;;;5130971;27;20389;-68
2022/04/08 02:50:08;;;;;;;;;;;5.30;99.90;;;;;;5132086;27;20367;-69
2022/04/08 02:52:34;;;;;;;;;;;5.40;99.90;;;;;;5132194;27;19915;-68
2022/04/08 02:54:59;;;;;;;;;;;5.40;99.90;;;;;;5132260;27;19919;-69
2022/04/08 02:57:25;;;;;;;;;;;5.50;99.90;;;;;;5132148;27;20068;-69
2022/04/08 02:59:53;;;;;;;;;;;5.50;99.90;;;;;;5131806;27;19915;-69
2022/04/08 03:02:21;;;;;;;;;;;5.40;99.90;;;;;;5132277;27;19954;-69
2022/04/08 03:04:47;;;;;;;;;;;5.40;99.90;;;;;;5132317;27;19920;-70
2022/04/08 03:07:12;;;;;;;;;;;5.40;99.90;;;;;;5132315;27;19919;-69
2022/04/08 03:09:38;;;;;;;;;;;5.50;99.90;;;;;;5131696;27;19922;-69
2022/04/08 03:12:03;;;;;;;;;;;5.40;99.90;;;;;;5131932;27;20290;-70
2022/04/08 03:14:29;;;;;;;;;;;5.40;99.90;;;;;;5132015;27;19915;-69
2022/04/08 03:16:54;;;;;;;;;;;5.50;99.90;;;;;;5130849;28;19920;-68
2022/04/08 03:19:20;;;;;;;;;;;5.50;99.90;;;;;;5131767;27;19915;-69
2022/04/08 03:21:46;;;;;;;;;;;5.40;99.90;;;;;;5131911;27;19919;-69
2022/04/08 03:24:12;;;;;;;;;;;5.30;99.90;;;;;;5132094;27;19968;-68
2022/04/08 03:26:37;;;;;;;;;;;5.30;99.90;;;;;;5131934;27;19927;-69
2022/04/08 03:29:03;;;;;;;;;;;5.30;99.90;;;;;;5131523;27;20570;-69
2022/04/08 03:31:29;;;;;;;;;;;5.30;99.90;;;;;;5132806;27;20045;-69
2022/04/08 03:33:54;;;;;;;;;;;5.30;99.90;;;;;;5136101;27;20380;-69
2022/04/08 03:36:20;;;;;;;;;;;5.30;99.90;;;;;;5135817;27;19959;-69
2022/04/08 03:38:45;;;;;;;;;;;5.30;99.90;;;;;;5135658;27;19915;-68
2022/04/08 03:41:11;;;;;;;;;;;5.30;99.90;;;;;;5135891;27;19915;-68
2022/04/08 03:43:36;;;;;;;;;;;5.30;99.90;;;;;;5135697;27;19919;-69
2022/04/08 03:46:02;;;;;;;;;;;5.30;99.90;;;;;;5134576;27;19930;-69
2022/04/08 03:48:27;;;;;;;;;;;5.30;99.90;;;;;;5135471;27;19919;-69
2022/04/08 03:50:53;;;;;;;;;;;5.30;99.90;;;;;;5135654;27;20359;-69
2022/04/08 03:53:19;;;;;;;;;;;5.30;99.90;;;;;;5135599;27;19923;-70
2022/04/08 03:55:45;;;;;;;;;;;5.30;99.90;;;;;;5135629;27;20001;-69
2022/04/08 03:58:11;;;;;;;;;;;5.20;99.90;;;;;;5134079;27;19970;-69
2022/04/08 04:00:37;;;;;;;;;;;5.20;99.90;;;;;;5135627;27;20390;-69
2022/04/08 04:03:03;;;;;;;;;;;5.20;99.90;;;;;;5135652;27;19919;-69
2022/04/08 04:05:29;;;;;;;;;;;5.10;99.90;;;;;;5135525;27;19922;-69
2022/04/08 04:07:58;;;;;;;;;;;5.20;99.90;;;;;;5134150;27;19915;-68
2022/04/08 04:10:23;;;;;;;;;;;5.20;99.90;;;;;;5135052;27;19915;-69
2022/04/08 04:12:49;;;;;;;;;;;5.20;99.90;;;;;;5135135;27;20397;-69
2022/04/08 04:15:15;;;;;;;;;;;5.20;99.90;;;;;;5133934;27;19922;-69
2022/04/08 04:17:41;;;;;;;;;;;5.20;99.90;;;;;;5135247;27;20434;-69
2022/04/08 04:20:06;;;;;;;;;;;5.20;99.90;;;;;;5134969;27;19938;-68
2022/04/08 04:22:32;;;;;;;;;;;5.10;99.90;;;;;;5134784;27;19919;-68
2022/04/08 04:24:57;;;;;;;;;;;5.10;99.90;;;;;;5134919;27;19919;-69
2022/04/08 04:27:23;;;;;;;;;;;5.10;99.90;;;;;;5134747;27;19923;-69
2022/04/08 04:29:48;;;;;;;;;;;5.10;99.90;;;;;;5133310;27;19936;-68
2022/04/08 04:32:14;;;;;;;;;;;5.10;99.90;;;;;;5134837;27;19916;-69
2022/04/08 04:34:39;;;;;;;;;;;5.20;99.90;;;;;;5134243;27;19998;-70
2022/04/08 04:37:05;;;;;;;;;;;5.20;99.90;;;;;;5134592;27;20405;-69
2022/04/08 04:39:31;;;;;;;;;;;5.20;99.90;;;;;;5134325;27;19915;-68
2022/04/08 04:41:56;;;;;;;;;;;5.20;99.90;;;;;;5133944;27;20332;-68
2022/04/08 04:44:22;;;;;;;;;;;5.20;99.90;;;;;;5134619;27;19945;-68
2022/04/08 04:46:47;;;;;;;;;;;5.20;99.90;;;;;;5133325;27;20367;-70
2022/04/08 04:49:13;;;;;;;;;;;5.20;99.90;;;;;;5133068;27;19915;-69
2022/04/08 04:51:39;;;;;;;;;;;5.20;99.90;;;;;;5132933;27;19921;-68
2022/04/08 04:54:04;;;;;;;;;;;5.30;99.90;;;;;;5131116;27;19915;-68
2022/04/08 04:56:30;;;;;;;;;;;5.30;99.90;;;;;;5134251;27;19915;-68
2022/04/08 04:58:55;;;;;;;;;;;5.30;99.90;;;;;;5131481;27;19920;-69
2022/04/08 05:01:21;;;;;;;;;;;5.30;99.90;;;;;;5133727;27;20371;-69
2022/04/08 05:03:46;;;;;;;;;;;5.30;99.90;;;;;;5132850;27;20393;-69
2022/04/08 05:06:12;;;;;;;;;;;5.30;99.90;;;;;;5134160;27;19919;-69
2022/04/08 05:08:37;;;;;;;;;;;5.20;99.90;;;;;;5133732;27;19919;-68
2022/04/08 05:11:03;;;;;;;;;;;5.30;99.90;;;;;;5132443;27;19966;-69
2022/04/08 05:13:28;;;;;;;;;;;5.30;99.90;;;;;;5132911;27;19911;-69
2022/04/08 05:15:54;;;;;;;;;;;5.20;99.90;;;;;;5133914;27;19919;-68
2022/04/08 05:18:19;;;;;;;;;;;5.30;99.90;;;;;;5133725;27;19972;-68
2022/04/08 05:20:45;;;;;;;;;;;5.30;99.90;;;;;;5132260;27;19915;-69
2022/04/08 05:23:10;;;;;;;;;;;5.20;99.90;;;;;;5133805;27;20009;-69
2022/04/08 05:25:36;;;;;;;;;;;5.30;99.90;;;;;;5133636;27;20022;-68
2022/04/08 05:28:01;;;;;;;;;;;5.30;99.90;;;;;;5133913;27;19919;-69
2022/04/08 05:30:27;;;;;;;;;;;5.30;99.90;;;;;;5133486;27;19919;-69
2022/04/08 05:32:54;;;;;;;;;;;5.30;99.90;;;;;;5133617;27;20576;-69
2022/04/08 05:35:20;;;;;;;;;;;5.30;99.90;;;;;;5133598;27;19922;-69
2022/04/08 05:37:46;;;;;;;;;;;5.40;99.90;;;;;;5133435;27;19920;-67
2022/04/08 05:40:14;;;;;;;;;;;5.40;99.90;;;;;;5133016;27;19915;-69
2022/04/08 05:42:40;;;;;;;;;;;5.40;99.90;;;;;;5133499;27;20306;-69
2022/04/08 05:45:09;;;;;;;;;;;5.50;99.90;;;;;;5133396;27;19915;-69
2022/04/08 05:47:35;;;;;;;;;;;5.40;99.90;;;;;;5131947;27;20013;-68
2022/04/08 05:50:00;;;;;;;;;;;5.40;99.90;;;;;;5132984;27;20023;-68
2022/04/08 05:52:26;;;;;;;;;;;5.30;99.90;;;;;;5133035;27;20032;-69
2022/04/08 05:54:51;;;;;;;;;;;5.40;99.90;;;;;;5131071;27;19915;-69
2022/04/08 05:57:17;;;;;;;;;;;5.30;99.90;;;;;;5100674;28;19930;-69
2022/04/08 05:59:43;;;;;;;;;;;5.30;99.90;;;;;;5101177;28;19919;-70
2022/04/08 06:02:08;;;;;;;;;;;5.20;99.90;;;;;;5106592;28;20264;-70
2022/04/08 06:04:33;;;;;;;;;;;5.20;99.90;;;;;;5112353;28;20010;-71
2022/04/08 06:06:59;;;;;;;;;;;5.20;99.90;;;;;;5112372;28;19916;-70
2022/04/08 06:09:24;;;;;;;;;;;5.20;99.90;;;;;;5112060;28;19915;-70
2022/04/08 06:11:50;;;;;;;;;;;5.20;99.90;;;;;;5112440;28;19922;-70
2022/04/08 06:14:15;;;;;;;;;;;5.30;99.90;;;;;;5111023;28;19915;-69
2022/04/08 06:16:42;;;;;;;;;;;5.20;99.90;;;;;;5093845;28;19920;-69
2022/04/08 06:19:08;;;;;;;;;;;5.20;99.90;;;;;;5110521;28;20026;-70
2022/04/08 06:21:33;;;;;;;;;;;5.20;99.90;;;;;;5108721;28;19963;-71
2022/04/08 06:23:59;;;;;;;;;;;5.10;99.90;;;;;;5095669;28;19916;-72
2022/04/08 06:26:24;;;;;;;;;;;5.10;99.90;;;;;;5074370;28;20337;-73
2022/04/08 06:28:50;;;;;;;;;;;5.10;99.90;;;;;;5085467;27;19915;-72
2022/04/08 06:31:16;;;;;;;;;;;5.00;99.90;;;;;;5110866;27;19975;-72
2022/04/08 06:33:42;;;;;;;;;;;5.00;99.90;;;;;;5111598;28;19915;-72
2022/04/08 06:36:07;;;;;;;;;;;5.00;99.90;;;;;;5111512;28;20343;-72
2022/04/08 06:38:33;;;;;;;;;;;5.00;99.90;;;;;;5110953;28;19927;-71
2022/04/08 06:40:59;;;;;;;;;;;4.90;99.90;;;;;;5111466;28;20345;-72
2022/04/08 06:43:24;;;;;;;;;;;5.00;99.90;;;;;;5110847;28;19958;-72
2022/04/08 06:45:50;;;;;;;;;;;4.90;99.90;;;;;;5110953;28;20006;-70
2022/04/08 06:48:15;;;;;;;;;;;4.80;99.90;;;;;;5110959;28;19969;-70
2022/04/08 06:50:41;;;;;;;;;;;5.00;99.90;;;;;;5111481;28;19966;-71
2022/04/08 06:53:06;;;;;;;;;;;5.00;99.90;;;;;;5093242;28;20007;-71
2022/04/08 06:55:32;;;;;;;;;;;5.00;99.90;;;;;;5111976;28;20319;-70
2022/04/08 06:57:58;;;;;;;;;;;5.10;99.90;;;;;;5111554;28;19969;-70
2022/04/08 07:00:24;;;;;;;;;;;5.30;99.90;;;;;;5111365;28;19915;-69
2022/04/08 07:02:49;;;;;;;;;;;5.20;99.90;;;;;;5111658;28;20380;-70
2022/04/08 07:05:15;;;;;;;;;;;5.30;99.90;;;;;;5112039;28;19923;-70
2022/04/08 07:07:40;;;;;;;;;;;5.30;99.90;;;;;;5115692;28;19923;-69
2022/04/08 07:10:06;;;;;;;;;;;5.30;99.90;;;;;;5115418;28;20386;-69
2022/04/08 07:12:32;;;;;;;;;;;5.40;99.90;;;;;;5114617;28;19977;-70
2022/04/08 07:14:58;;;;;;;;;;;5.40;99.90;;;;;;5115652;28;19962;-69
2022/04/08 07:17:30;;;;;;;;;;;5.40;99.90;;;;;;5115638;28;19964;-70
2022/04/08 07:19:56;;;;;;;;;;;5.40;99.90;;;;;;5113878;28;20006;-69
2022/04/08 07:22:22;;;;;;;;;;;5.60;99.90;;;;;;5115217;28;19915;-70
2022/04/08 07:24:48;;;;;;;;;;;5.70;99.90;;;;;;5115643;28;19942;-69
2022/04/08 07:27:14;;;;;;;;;;;5.70;99.90;;;;;;5115383;28;19923;-70
2022/04/08 07:29:39;;;;;;;;;;;5.70;99.90;;;;;;5113881;28;19938;-69
2022/04/08 07:32:05;;;;;;;;;;;5.80;99.90;;;;;;5114132;28;20325;-70
2022/04/08 07:34:30;;;;;;;;;;;5.90;99.90;;;;;;5110792;28;19920;-70
2022/04/08 07:36:56;;;;;;;;;;;5.90;99.90;;;;;;5099218;28;19924;-70
2022/04/08 07:39:21;;;;;;;;;;;6.00;99.90;;;;;;5103264;28;20474;-71
2022/04/08 07:41:47;;;;;;;;;;;6.10;99.90;;;;;;5104774;28;19939;-70
2022/04/08 07:44:12;;;;;;;;;;;6.10;99.90;;;;;;5104062;28;20388;-71
2022/04/08 07:46:38;;;;;;;;;;;6.20;99.90;;;;;;5104327;28;19915;-70
2022/04/08 07:49:03;;;;;;;;;;;6.30;99.90;;;;;;5102584;28;19923;-69
2022/04/08 07:51:29;;;;;;;;;;;6.40;99.90;;;;;;5096906;28;20226;-70
2022/04/08 07:53:54;;;;;;;;;;;6.40;99.90;;;;;;5097934;28;19969;-71
2022/04/08 07:56:20;;;;;;;;;;;6.40;99.90;;;;;;5101426;28;19915;-71
2022/04/08 07:58:47;;;;;;;;;;;6.50;99.90;;;;;;5108088;28;20023;-71
2022/04/08 08:01:13;;;;;;;;;;;6.50;99.90;;;;;;5104195;28;19965;-71
2022/04/08 08:03:38;;;;;;;;;;;6.50;99.90;;;;;;5103871;28;19976;-71
2022/04/08 08:06:04;;;;;;;;;;;6.50;99.90;;;;;;5102181;28;19916;-70
2022/04/08 08:08:29;;;;;;;;;;;6.50;99.90;;;;;;5102868;28;20034;-71
2022/04/08 08:10:55;;;;;;;;;;;6.60;99.90;;;;;;5110717;28;19980;-70
2022/04/08 08:13:21;;;;;;;;;;;6.50;99.90;;;;;;5113602;28;19915;-68
2022/04/08 08:15:46;;;;;;;;;;;6.50;99.90;;;;;;5114693;28;19976;-69
2022/04/08 08:18:12;;;;;;;;;;;6.50;99.90;;;;;;5113796;28;19927;-68
2022/04/08 08:20:37;;;;;;;;;;;6.40;99.90;;;;;;5112797;28;19919;-69
2022/04/08 08:23:03;;;;;;;;;;;6.30;99.90;;;;;;5114308;28;20016;-68
2022/04/08 08:25:29;;;;;;;;;;;6.30;99.90;;;;;;5114611;28;19969;-72
2022/04/08 08:27:56;;;;;;;;;;;6.30;99.90;;;;;;5110802;28;19919;-74
2022/04/08 08:30:21;;;;;;;;;;;6.30;99.90;;;;;;5104382;28;19916;-69
2022/04/08 08:32:47;;;;;;;;;;;6.30;99.90;;;;;;5101581;28;19927;-70
2022/04/08 08:35:14;;;;;;;;;;;6.40;99.90;;;;;;5103254;28;19997;-69
2022/04/08 08:37:39;;;;;;;;;;;6.40;99.90;;;;;;5086535;28;19919;-69
2022/04/08 08:40:06;;;;;;;;;;;6.50;99.90;;;;;;5101139;28;19919;-70
2022/04/08 08:42:32;;;;;;;;;;;6.50;99.90;;;;;;5095746;28;20340;-69
2022/04/08 08:44:57;;;;;;;;;;;6.60;99.90;;;;;;5107348;27;19973;-69
2022/04/08 08:47:25;;;;;;;;;;;6.70;99.90;;;;;;5124543;27;19962;-69
2022/04/08 08:49:50;;;;;;;;;;;6.70;99.90;;;;;;5133959;27;19915;-69
2022/04/08 08:52:16;;;;;;;;;;;6.80;99.90;;;;;;5134236;27;19926;-68
2022/04/08 08:54:42;;;;;;;;;;;6.80;99.90;;;;;;5134585;27;19938;-67
2022/04/08 08:57:10;;;;;;;;;;;6.90;99.90;;;;;;5134365;27;19923;-68
2022/04/08 08:59:36;;;;;;;;;;;6.80;99.90;;;;;;5134065;27;19915;-68
2022/04/08 09:02:02;;;;;;;;;;;6.90;99.90;;;;;;5133214;27;20438;-69
2022/04/08 09:04:28;;;;;;;;;;;7.00;99.90;;;;;;5134151;27;19919;-68
2022/04/08 09:06:54;;;;;;;;;;;7.00;99.90;;;;;;5134203;27;20340;-68
2022/04/08 09:09:30;;;;;;;;;;;7.00;99.90;;;;;;5133984;27;19930;-68
2022/04/08 09:11:56;;;;;;;;;;;7.00;99.90;;;;;;5134039;27;19915;-69
2022/04/08 09:14:28;;;;;;;;;;;7.00;99.90;;;;;;5134047;27;19982;-69
2022/04/08 09:17:01;;;;;;;;;;;7.10;99.90;;;;;;5132458;27;19946;-68
2022/04/08 09:19:30;;;;;;;;;;;7.10;99.90;;;;;;5133661;27;19919;-69
2022/04/08 09:21:55;;;;;;;;;;;7.10;99.90;;;;;;5133741;27;19958;-69
2022/04/08 09:24:22;;;;;;;;;;;7.20;99.90;;;;;;5133869;27;20027;-69
2022/04/08 09:26:50;;;;;;;;;;;7.20;99.90;;;;;;5103693;27;19920;-72
2022/04/08 09:29:18;;;;;;;;;;;7.30;99.90;;;;;;5089601;28;19924;-73
2022/04/08 09:31:47;;;;;;;;;;;7.40;99.90;;;;;;5092675;28;20003;-71
2022/04/08 09:34:13;;;;;;;;;;;7.40;99.90;;;;;;5091404;28;20021;-72
2022/04/08 09:36:40;;;;;;;;;;;7.50;99.90;;;;;;5090292;28;20399;-72
2022/04/08 09:39:06;;;;;;;;;;;7.50;99.90;;;;;;5091120;28;19916;-71
2022/04/08 09:41:42;;;;;;;;;;;7.50;99.90;;;;;;5091699;28;19916;-72
2022/04/08 09:44:08;;;;;;;;;;;7.60;99.90;;;;;;5091312;28;19951;-71
2022/04/08 09:46:33;;;;;;;;;;;7.60;99.90;;;;;;5091177;28;19963;-70
2022/04/08 09:48:59;;;;;;;;;;;7.70;99.90;;;;;;5092236;28;19916;-69
2022/04/08 09:51:26;;;;;;;;;;;7.60;99.90;;;;;;5092564;28;19915;-68
2022/04/08 09:53:52;;;;;;;;;;;7.60;99.90;;;;;;5091135;28;20291;-69
2022/04/08 09:56:19;;;;;;;;;;;7.60;99.90;;;;;;5092229;28;19924;-68
2022/04/08 09:58:48;;;;;;;;;;;7.70;99.90;;;;;;5092100;28;20191;-69
2022/04/08 10:01:14;;;;;;;;;;;7.90;99.90;;;;;;5092236;28;20002;-68
2022/04/08 10:03:40;;;;;;;;;;;7.90;99.90;;;;;;5091050;28;20341;-69
2022/04/08 10:06:07;;;;;;;;;;;8.00;99.90;;;;;;5090711;28;20006;-69
2022/04/08 10:08:33;;;;;;;;;;;8.00;99.90;;;;;;5091714;28;19919;-68
2022/04/08 10:11:14;;;;;;;;;;;8.00;99.90;;;;;;5091800;28;19916;-68
2022/04/08 10:13:59;;;;;;;;;;;8.10;99.90;;;;;;5092130;28;20348;-68
2022/04/08 10:16:24;;;;;;;;;;;8.20;99.90;;;;;;5090485;28;19916;-69
2022/04/08 10:18:50;;;;;;;;;;;8.20;99.90;;;;;;5091466;28;19916;-69
2022/04/08 10:21:16;;;;;;;;;;;8.30;99.90;;;;;;5091727;28;19939;-69
2022/04/08 10:23:49;;;;;;;;;;;8.40;99.90;;;;;;5090404;28;20304;-69
2022/04/08 10:26:16;;;;;;;;;;;8.40;99.90;;;;;;5091945;28;19916;-68
2022/04/08 10:28:41;;;;;;;;;;;8.30;99.90;;;;;;5091621;28;20303;-69
2022/04/08 10:31:16;;;;;;;;;;;8.40;99.90;;;;;;5091477;28;19920;-69
2022/04/08 10:33:46;;;;;;;;;;;8.50;99.90;;;;;;5091655;28;19916;-68
2022/04/08 10:36:11;;;;;;;;;;;8.60;99.90;;;;;;5090178;28;19916;-68
2022/04/08 10:38:37;;;;;;;;;;;8.60;99.90;;;;;;5091482;28;19927;-68
2022/04/08 10:41:08;;;;;;;;;;;8.60;99.90;;;;;;5091040;28;19920;-69
2022/04/08 10:43:47;;;;;;;;;;;8.70;99.90;;;;;;5091484;28;19922;-69
2022/04/08 10:46:13;;;;;;;;;;;8.80;99.90;;;;;;5095720;28;19963;-68
2022/04/08 10:48:39;;;;;;;;;;;8.80;99.90;;;;;;5100093;28;19916;-69
2022/04/08 10:51:11;;;;;;;;;;;8.90;99.90;;;;;;5103390;28;20391;-69
2022/04/08 10:53:40;;;;;;;;;;;8.80;99.90;;;;;;5098797;28;19931;-68
2022/04/08 10:56:07;;;;;;;;;;;8.90;99.90;;;;;;5101527;28;20300;-68
2022/04/08 10:58:34;;;;;;;;;;;8.90;99.90;;;;;;5100731;28;19924;-69
2022/04/08 11:01:00;;;;;;;;;;;8.90;99.90;;;;;;5099991;28;19919;-68
2022/04/08 11:03:29;;;;;;;;;;;8.80;99.90;;;;;;5099958;28;20312;-68
2022/04/08 11:05:54;;;;;;;;;;;8.80;99.90;;;;;;5101220;28;19916;-69
2022/04/08 11:08:24;;;;;;;;;;;8.80;99.90;;;;;;5101785;28;19916;-68
2022/04/08 11:10:57;;;;;;;;;;;8.70;99.90;;;;;;5099906;28;19916;-69
2022/04/08 11:13:22;;;;;;;;;;;8.60;99.90;;;;;;5098475;28;20057;-69
2022/04/08 11:15:49;;;;;;;;;;;8.50;99.90;;;;;;5096456;28;20382;-69
2022/04/08 11:18:14;;;;;;;;;;;8.40;99.90;;;;;;5090135;28;19923;-69
2022/04/08 11:20:40;;;;;;;;;;;8.30;99.90;;;;;;5099098;28;20386;-68
2022/04/08 11:23:05;;;;;;;;;;;8.20;99.90;;;;;;5083955;28;20045;-68
2022/04/08 11:25:31;;;;;;;;;;;8.20;99.90;;;;;;5099106;28;19924;-68
2022/04/08 11:27:57;;;;;;;;;;;8.20;99.90;;;;;;5098610;28;19923;-69
2022/04/08 11:30:23;;;;;;;;;;;8.20;99.90;;;;;;5109976;28;19920;-69
2022/04/08 11:32:48;;;;;;;;;;;8.20;99.90;;;;;;5109878;28;19927;-69
2022/04/08 11:35:14;;;;;;;;;;;8.20;99.90;;;;;;5110391;28;19919;-68
2022/04/08 11:37:40;;;;;;;;;;;8.20;99.90;;;;;;5110015;28;20436;-68
2022/04/08 11:40:07;;;;;;;;;;;8.20;99.90;;;;;;5110029;28;19922;-68
2022/04/08 11:42:33;;;;;;;;;;;8.30;99.90;;;;;;5110600;28;19928;-68
2022/04/08 11:44:59;;;;;;;;;;;8.40;99.90;;;;;;5109914;28;20337;-68
2022/04/08 11:47:31;;;;;;;;;;;8.50;99.90;;;;;;5109351;28;20008;-68
2022/04/08 11:50:02;;;;;;;;;;;8.50;99.90;;;;;;5109101;28;19999;-68
2022/04/08 11:52:27;;;;;;;;;;;8.60;99.90;;;;;;5093356;28;19915;-68
2022/04/08 11:54:54;;;;;;;;;;;8.70;99.90;;;;;;5114263;28;19972;-68
2022/04/08 11:57:27;;;;;;;;;;;8.70;99.90;;;;;;5114379;27;19920;-68
2022/04/08 11:59:53;;;;;;;;;;;8.70;99.90;;;;;;5114671;28;19980;-68
2022/04/08 12:02:19;;;;;;;;;;;8.70;99.90;;;;;;5114757;28;19916;-68
2022/04/08 12:04:44;;;;;;;;;;;8.80;99.90;;;;;;5113142;28;19969;-68
2022/04/08 12:07:23;;;;;;;;;;;8.80;99.90;;;;;;5114715;28;19915;-68
2022/04/08 12:09:49;;;;;;;;;;;8.90;99.90;;;;;;5114213;28;20085;-68
2022/04/08 12:12:21;;;;;;;;;;;9.00;99.90;;;;;;5114386;28;19919;-68
2022/04/08 12:14:47;;;;;;;;;;;9.00;99.90;;;;;;5114419;28;19919;-68
2022/04/08 12:17:12;;;;;;;;;;;9.10;99.90;;;;;;5114320;28;20365;-68
2022/04/08 12:19:41;;;;;;;;;;;9.10;99.90;;;;;;5114203;28;19920;-68
2022/04/08 12:22:13;;;;;;;;;;;9.10;99.90;;;;;;5114081;28;19924;-68
2022/04/08 12:24:40;;;;;;;;;;;8.90;99.90;;;;;;5113972;27;19968;-68
2022/04/08 12:27:19;;;;;;;;;;;8.90;99.90;;;;;;5113031;28;19916;-68
2022/04/08 12:29:46;;;;;;;;;;;8.80;99.90;;;;;;5113915;28;19967;-68
2022/04/08 12:32:15;;;;;;;;;;;8.70;99.90;;;;;;5114192;28;19915;-68
2022/04/08 12:34:43;;;;;;;;;;;8.60;99.90;;;;;;5113918;28;19919;-68
2022/04/08 12:37:09;;;;;;;;;;;8.60;99.90;;;;;;5114018;27;20412;-68
2022/04/08 12:39:35;;;;;;;;;;;8.60;99.90;;;;;;5113791;28;19965;-69
2022/04/08 12:42:01;;;;;;;;;;;8.70;99.90;;;;;;5113933;28;20010;-71
2022/04/08 12:44:26;;;;;;;;;;;8.80;99.90;;;;;;5113275;28;19987;-69
2022/04/08 12:46:54;;;;;;;;;;;8.90;99.90;;;;;;5113842;28;20390;-69
2022/04/08 12:49:19;;;;;;;;;;;9.00;99.90;;;;;;5113325;28;19916;-69
2022/04/08 12:51:45;;;;;;;;;;;9.10;99.90;;;;;;5113763;28;19919;-69
2022/04/08 12:54:11;;;;;;;;;;;9.10;99.90;;;;;;5113686;28;19923;-69
2022/04/08 12:56:37;;;;;;;;;;;9.20;99.90;;;;;;5113548;28;19920;-69
2022/04/08 12:59:03;;;;;;;;;;;9.30;99.90;;;;;;5113493;28;19973;-69
2022/04/08 13:01:29;;;;;;;;;;;9.30;99.90;;;;;;5095352;28;19916;-69
2022/04/08 13:03:54;;;;;;;;;;;9.30;99.90;;;;;;5112910;28;19989;-69
2022/04/08 13:06:20;;;;;;;;;;;9.40;99.90;;;;;;5112872;28;19916;-68
2022/04/08 13:08:45;;;;;;;;;;;9.40;99.90;;;;;;5113313;28;19923;-69
2022/04/08 13:11:11;;;;;;;;;;;9.40;99.90;;;;;;5113460;28;19950;-69
2022/04/08 13:13:37;;;;;;;;;;;9.40;99.90;;;;;;5113480;28;19916;-69
2022/04/08 13:16:03;;;;;;;;;;;9.40;99.90;;;;;;5112975;28;19979;-69
2022/04/08 13:18:28;;;;;;;;;;;9.40;99.90;;;;;;5112934;28;20010;-69
2022/04/08 13:20:54;;;;;;;;;;;9.50;99.90;;;;;;5113136;28;20003;-70
2022/04/08 13:23:19;;;;;;;;;;;9.50;99.90;;;;;;5112039;28;19923;-70
2022/04/08 13:25:45;;;;;;;;;;;9.60;99.90;;;;;;5111449;28;20276;-69
2022/04/08 13:28:13;;;;;;;;;;;9.60;99.90;;;;;;5111077;28;20469;-69
2022/04/08 13:30:39;;;;;;;;;;;9.70;99.90;;;;;;5099852;28;19999;-69
2022/04/08 13:33:05;;;;;;;;;;;9.70;99.90;;;;;;5101083;28;19922;-69
2022/04/08 13:35:30;;;;;;;;;;;9.70;99.90;;;;;;5103638;28;19916;-69
2022/04/08 13:37:56;;;;;;;;;;;9.70;99.90;;;;;;5097942;28;19941;-69
2022/04/08 13:40:25;;;;;;;;;;;9.70;99.90;;;;;;5102789;28;20002;-70
2022/04/08 13:42:50;;;;;;;;;;;9.90;99.90;;;;;;5114492;28;20019;-70
2022/04/08 13:45:16;;;;;;;;;;;9.90;99.90;;;;;;5113091;28;19966;-70
2022/04/08 13:47:42;;;;;;;;;;;9.80;99.90;;;;;;5111776;28;19919;-69
2022/04/08 13:50:08;;;;;;;;;;;9.90;99.90;;;;;;5116814;28;19920;-70
2022/04/08 13:52:33;;;;;;;;;;;9.90;99.90;;;;;;5121067;28;19923;-70
2022/04/08 13:54:59;;;;;;;;;;;9.80;99.90;;;;;;5119831;28;19915;-70
2022/04/08 13:57:24;;;;;;;;;;;9.80;99.90;;;;;;5116230;28;19920;-70
2022/04/08 13:59:50;;;;;;;;;;;9.90;99.90;;;;;;5111949;28;19978;-70
2022/04/08 14:02:15;;;;;;;;;;;9.80;99.90;;;;;;5112246;28;19919;-70
2022/04/08 14:04:42;;;;;;;;;;;9.90;99.90;;;;;;5112050;28;19944;-70
2022/04/08 14:07:07;;;;;;;;;;;9.90;99.90;;;;;;5113036;28;19951;-69
2022/04/08 14:09:33;;;;;;;;;;;9.90;99.90;;;;;;5112173;28;19974;-70
2022/04/08 14:11:59;;;;;;;;;;;10.00;99.90;;;;;;5112269;28;19927;-71
2022/04/08 14:14:24;;;;;;;;;;;10.00;99.90;;;;;;5111996;28;19916;-70
2022/04/08 14:16:50;;;;;;;;;;;10.00;99.90;;;;;;5110096;28;19953;-70
2022/04/08 14:19:15;;;;;;;;;;;9.90;99.90;;;;;;5110586;28;19915;-71
2022/04/08 14:21:41;;;;;;;;;;;10.00;99.90;;;;;;5111980;28;19922;-71
2022/04/08 14:24:06;;;;;;;;;;;10.00;99.90;;;;;;5110623;28;20612;-71